sensor_id;sensor_type;location;lat;lon;timestamp;temperature;humidity
10512;DHT22;5304;48.604;2.096;2022-08-21T00:02:15;14.90;99.90
10512;DHT22;5304;48.604;2.096;2022-08-21T00:05:00;14.90;99.90
10512;DHT22;5304;48.604;2.096;2022-08-21T00:07:44;14.90;99.90
10512;DHT22;5304;48.604;2.096;2022-08-21T00:10:29;14.80;99.90
10512;DHT22;5304;48.604;2.096;2022-08-21T00:13:16;14.80;99.90
10512;DHT22;5304;48.604;2.096;2022-08-21T00:16:01;14.90;99.90
10512;DHT22;5304;48.604;2.096;2022-08-21T00:18:46;14.90;99.90
10512;DHT22;5304;48.604;2.096;2022-08-21T00:21:30;14.80;99.90
10512;DHT22;5304;48.604;2.096;2022-08-21T00:24:15;14.80;99.90
10512;DHT22;5304;48.604;2.096;2022-08-21T00:26:59;14.70;99.90
10512;DHT22;5304;48.604;2.096;2022-08-21T00:29:44;14.70;99.90
10512;DHT22;5304;48.604;2.096;2022-08-21T00:32:29;14.70;99.90
10512;DHT22;5304;48.604;2.096;2022-08-21T00:35:18;14.70;99.90
10512;DHT22;5304;48.604;2.096;2022-08-21T00:38:04;14.70;99.90
10512;DHT22;5304;48.604;2.096;2022-08-21T00:40:55;14.60;99.90
10512;DHT22;5304;48.604;2.096;2022-08-21T00:43:40;14.50;99.90
10512;DHT22;5304;48.604;2.096;2022-08-21T00:46:24;14.50;99.90
10512;DHT22;5304;48.604;2.096;2022-08-21T00:49:10;14.50;99.90
10512;DHT22;5304;48.604;2.096;2022-08-21T00:51:58;14.50;99.90
10512;DHT22;5304;48.604;2.096;2022-08-21T00:54:44;14.50;99.90
10512;DHT22;5304;48.604;2.096;2022-08-21T00:57:33;14.50;99.90
10512;DHT22;5304;48.604;2.096;2022-08-21T01:00:25;14.50;99.90
10512;DHT22;5304;48.604;2.096;2022-08-21T01:03:15;14.40;99.90
10512;DHT22;5304;48.604;2.096;2022-08-21T01:06:00;14.40;99.90
10512;DHT22;5304;48.604;2.096;2022-08-21T01:08:45;14.40;99.90
10512;DHT22;5304;48.604;2.096;2022-08-21T01:11:30;14.30;99.90
10512;DHT22;5304;48.604;2.096;2022-08-21T01:14:15;14.30;99.90
10512;DHT22;5304;48.604;2.096;2022-08-21T01:17:00;14.20;99.90
10512;DHT22;5304;48.604;2.096;2022-08-21T01:19:47;14.20;99.90
10512;DHT22;5304;48.604;2.096;2022-08-21T01:22:31;14.20;99.90
10512;DHT22;5304;48.604;2.096;2022-08-21T01:25:17;14.30;99.90
10512;DHT22;5304;48.604;2.096;2022-08-21T01:28:14;14.30;99.90
10512;DHT22;5304;48.604;2.096;2022-08-21T01:31:01;14.30;99.90
10512;DHT22;5304;48.604;2.096;2022-08-21T01:33:46;14.30;99.90
10512;DHT22;5304;48.604;2.096;2022-08-21T01:36:32;14.40;99.90
10512;DHT22;5304;48.604;2.096;2022-08-21T01:39:17;14.40;99.90
10512;DHT22;5304;48.604;2.096;2022-08-21T01:42:02;14.30;99.90
10512;DHT22;5304;48.604;2.096;2022-08-21T01:44:47;14.20;99.90
10512;DHT22;5304;48.604;2.096;2022-08-21T01:47:31;14.10;99.90
10512;DHT22;5304;48.604;2.096;2022-08-21T01:50:18;14.10;99.90
10512;DHT22;5304;48.604;2.096;2022-08-21T01:53:03;14.20;99.90
10512;DHT22;5304;48.604;2.096;2022-08-21T01:55:47;14.20;99.90
10512;DHT22;5304;48.604;2.096;2022-08-21T01:58:32;14.20;99.90
10512;DHT22;5304;48.604;2.096;2022-08-21T02:01:17;14.20;99.90
10512;DHT22;5304;48.604;2.096;2022-08-21T02:04:02;14.20;99.90
10512;DHT22;5304;48.604;2.096;2022-08-21T02:06:47;14.10;99.90
10512;DHT22;5304;48.604;2.096;2022-08-21T02:09:32;14.00;99.90
10512;DHT22;5304;48.604;2.096;2022-08-21T02:12:17;13.90;99.90
10512;DHT22;5304;48.604;2.096;2022-08-21T02:15:02;13.90;99.90
10512;DHT22;5304;48.604;2.096;2022-08-21T02:17:53;13.80;99.90
10512;DHT22;5304;48.604;2.096;2022-08-21T02:20:41;13.70;99.90
10512;DHT22;5304;48.604;2.096;2022-08-21T02:23:26;13.70;99.90
10512;DHT22;5304;48.604;2.096;2022-08-21T02:26:11;13.60;99.90
10512;DHT22;5304;48.604;2.096;2022-08-21T02:28:56;13.60;99.90
10512;DHT22;5304;48.604;2.096;2022-08-21T02:31:40;13.60;99.90
10512;DHT22;5304;48.604;2.096;2022-08-21T02:34:25;13.80;99.90
10512;DHT22;5304;48.604;2.096;2022-08-21T02:37:09;13.70;99.90
10512;DHT22;5304;48.604;2.096;2022-08-21T02:39:55;13.60;99.90
10512;DHT22;5304;48.604;2.096;2022-08-21T02:42:40;13.50;99.90
10512;DHT22;5304;48.604;2.096;2022-08-21T02:45:24;13.40;99.90
10512;DHT22;5304;48.604;2.096;2022-08-21T02:48:10;13.40;99.90
10512;DHT22;5304;48.604;2.096;2022-08-21T02:51:01;13.40;99.90
10512;DHT22;5304;48.604;2.096;2022-08-21T02:53:47;13.40;99.90
10512;DHT22;5304;48.604;2.096;2022-08-21T02:56:32;13.40;99.90
10512;DHT22;5304;48.604;2.096;2022-08-21T02:59:16;13.40;99.90
10512;DHT22;5304;48.604;2.096;2022-08-21T03:02:01;13.30;99.90
10512;DHT22;5304;48.604;2.096;2022-08-21T03:04:46;13.30;99.90
10512;DHT22;5304;48.604;2.096;2022-08-21T03:07:30;13.30;99.90
10512;DHT22;5304;48.604;2.096;2022-08-21T03:10:15;13.30;99.90
10512;DHT22;5304;48.604;2.096;2022-08-21T03:13:00;13.20;99.90
10512;DHT22;5304;48.604;2.096;2022-08-21T03:15:45;13.20;99.90
10512;DHT22;5304;48.604;2.096;2022-08-21T03:18:29;13.30;99.90
10512;DHT22;5304;48.604;2.096;2022-08-21T03:21:14;13.60;99.90
10512;DHT22;5304;48.604;2.096;2022-08-21T03:23:58;13.40;99.90
10512;DHT22;5304;48.604;2.096;2022-08-21T03:26:43;13.40;99.90
10512;DHT22;5304;48.604;2.096;2022-08-21T03:29:27;13.30;99.90
10512;DHT22;5304;48.604;2.096;2022-08-21T03:32:12;13.30;99.90
10512;DHT22;5304;48.604;2.096;2022-08-21T03:34:57;13.30;99.90
10512;DHT22;5304;48.604;2.096;2022-08-21T03:37:41;13.20;99.90
10512;DHT22;5304;48.604;2.096;2022-08-21T03:40:26;13.10;99.90
10512;DHT22;5304;48.604;2.096;2022-08-21T03:43:11;13.10;99.90
10512;DHT22;5304;48.604;2.096;2022-08-21T03:45:55;13.00;99.90
10512;DHT22;5304;48.604;2.096;2022-08-21T03:48:40;12.90;99.90
10512;DHT22;5304;48.604;2.096;2022-08-21T03:51:24;12.90;99.90
10512;DHT22;5304;48.604;2.096;2022-08-21T03:54:08;13.00;99.90
10512;DHT22;5304;48.604;2.096;2022-08-21T03:56:53;13.00;99.90
10512;DHT22;5304;48.604;2.096;2022-08-21T03:59:38;13.10;99.90
10512;DHT22;5304;48.604;2.096;2022-08-21T04:02:23;13.00;99.90
10512;DHT22;5304;48.604;2.096;2022-08-21T04:05:08;13.10;99.90
10512;DHT22;5304;48.604;2.096;2022-08-21T04:08:01;13.00;99.90
10512;DHT22;5304;48.604;2.096;2022-08-21T04:10:48;13.00;99.90
10512;DHT22;5304;48.604;2.096;2022-08-21T04:13:33;13.00;99.90
10512;DHT22;5304;48.604;2.096;2022-08-21T04:16:18;13.00;99.90
10512;DHT22;5304;48.604;2.096;2022-08-21T04:19:03;13.00;99.90
10512;DHT22;5304;48.604;2.096;2022-08-21T04:21:48;13.00;99.90
10512;DHT22;5304;48.604;2.096;2022-08-21T04:24:33;13.10;99.90
10512;DHT22;5304;48.604;2.096;2022-08-21T04:27:18;13.10;99.90
10512;DHT22;5304;48.604;2.096;2022-08-21T04:30:04;13.20;99.90
10512;DHT22;5304;48.604;2.096;2022-08-21T04:32:50;13.10;99.90
10512;DHT22;5304;48.604;2.096;2022-08-21T04:35:35;13.10;99.90
10512;DHT22;5304;48.604;2.096;2022-08-21T04:38:20;13.00;99.90
10512;DHT22;5304;48.604;2.096;2022-08-21T04:41:04;13.00;99.90
10512;DHT22;5304;48.604;2.096;2022-08-21T04:43:51;13.00;99.90
10512;DHT22;5304;48.604;2.096;2022-08-21T04:46:35;13.00;99.90
10512;DHT22;5304;48.604;2.096;2022-08-21T04:49:19;13.00;99.90
10512;DHT22;5304;48.604;2.096;2022-08-21T04:52:04;12.90;99.90
10512;DHT22;5304;48.604;2.096;2022-08-21T04:54:49;12.90;99.90
10512;DHT22;5304;48.604;2.096;2022-08-21T04:57:36;12.90;99.90
10512;DHT22;5304;48.604;2.096;2022-08-21T05:00:22;12.80;99.90
10512;DHT22;5304;48.604;2.096;2022-08-21T05:03:10;12.80;99.90
10512;DHT22;5304;48.604;2.096;2022-08-21T05:05:55;12.80;99.90
10512;DHT22;5304;48.604;2.096;2022-08-21T05:08:41;13.00;99.90
10512;DHT22;5304;48.604;2.096;2022-08-21T05:11:28;12.90;99.90
10512;DHT22;5304;48.604;2.096;2022-08-21T05:14:14;12.90;99.90
10512;DHT22;5304;48.604;2.096;2022-08-21T05:17:00;12.90;99.90
10512;DHT22;5304;48.604;2.096;2022-08-21T05:19:44;13.10;99.90
10512;DHT22;5304;48.604;2.096;2022-08-21T05:22:28;13.20;99.90
10512;DHT22;5304;48.604;2.096;2022-08-21T05:25:13;13.30;99.90
10512;DHT22;5304;48.604;2.096;2022-08-21T05:27:57;13.20;99.90
10512;DHT22;5304;48.604;2.096;2022-08-21T05:30:42;13.20;99.90
10512;DHT22;5304;48.604;2.096;2022-08-21T05:33:26;13.10;99.90
10512;DHT22;5304;48.604;2.096;2022-08-21T05:36:11;13.10;99.90
10512;DHT22;5304;48.604;2.096;2022-08-21T05:38:56;13.10;99.90
10512;DHT22;5304;48.604;2.096;2022-08-21T05:41:41;13.10;99.90
10512;DHT22;5304;48.604;2.096;2022-08-21T05:44:25;13.20;99.90
10512;DHT22;5304;48.604;2.096;2022-08-21T05:47:10;13.20;99.90
10512;DHT22;5304;48.604;2.096;2022-08-21T05:49:56;13.30;99.90
10512;DHT22;5304;48.604;2.096;2022-08-21T05:52:40;13.30;99.90
10512;DHT22;5304;48.604;2.096;2022-08-21T05:55:25;13.30;99.90
10512;DHT22;5304;48.604;2.096;2022-08-21T05:58:09;13.30;99.90
10512;DHT22;5304;48.604;2.096;2022-08-21T06:00:54;13.40;99.90
10512;DHT22;5304;48.604;2.096;2022-08-21T06:03:40;13.50;99.90
10512;DHT22;5304;48.604;2.096;2022-08-21T06:06:25;13.50;99.90
10512;DHT22;5304;48.604;2.096;2022-08-21T06:09:09;13.60;99.90
10512;DHT22;5304;48.604;2.096;2022-08-21T06:11:54;13.70;99.90
10512;DHT22;5304;48.604;2.096;2022-08-21T06:14:39;13.90;99.90
10512;DHT22;5304;48.604;2.096;2022-08-21T06:17:24;14.20;99.90
10512;DHT22;5304;48.604;2.096;2022-08-21T06:20:09;14.60;99.90
10512;DHT22;5304;48.604;2.096;2022-08-21T06:22:54;14.90;99.90
10512;DHT22;5304;48.604;2.096;2022-08-21T06:25:38;15.30;99.90
10512;DHT22;5304;48.604;2.096;2022-08-21T06:28:23;15.80;99.90
10512;DHT22;5304;48.604;2.096;2022-08-21T06:31:14;16.40;99.90
10512;DHT22;5304;48.604;2.096;2022-08-21T06:33:59;16.70;99.90
10512;DHT22;5304;48.604;2.096;2022-08-21T06:36:43;16.60;99.90
10512;DHT22;5304;48.604;2.096;2022-08-21T06:39:28;16.40;99.90
10512;DHT22;5304;48.604;2.096;2022-08-21T06:42:16;16.30;99.90
10512;DHT22;5304;48.604;2.096;2022-08-21T06:45:00;16.40;99.90
10512;DHT22;5304;48.604;2.096;2022-08-21T06:47:45;16.40;99.90
10512;DHT22;5304;48.604;2.096;2022-08-21T06:50:30;16.50;99.90
10512;DHT22;5304;48.604;2.096;2022-08-21T06:53:18;16.70;99.90
10512;DHT22;5304;48.604;2.096;2022-08-21T06:56:03;17.00;99.90
10512;DHT22;5304;48.604;2.096;2022-08-21T06:58:50;17.40;99.90
10512;DHT22;5304;48.604;2.096;2022-08-21T07:01:36;17.50;99.90
10512;DHT22;5304;48.604;2.096;2022-08-21T07:04:21;17.60;99.90
10512;DHT22;5304;48.604;2.096;2022-08-21T07:07:05;17.60;99.90
10512;DHT22;5304;48.604;2.096;2022-08-21T07:09:50;17.60;99.90
10512;DHT22;5304;48.604;2.096;2022-08-21T07:12:34;17.70;99.90
10512;DHT22;5304;48.604;2.096;2022-08-21T07:15:19;18.00;99.90
10512;DHT22;5304;48.604;2.096;2022-08-21T07:18:05;18.50;99.90
10512;DHT22;5304;48.604;2.096;2022-08-21T07:20:49;18.60;99.90
10512;DHT22;5304;48.604;2.096;2022-08-21T07:23:44;19.00;99.90
10512;DHT22;5304;48.604;2.096;2022-08-21T07:26:29;19.40;99.90
10512;DHT22;5304;48.604;2.096;2022-08-21T07:29:13;19.80;99.90
10512;DHT22;5304;48.604;2.096;2022-08-21T07:31:58;20.00;99.90
10512;DHT22;5304;48.604;2.096;2022-08-21T07:34:43;20.60;99.90
10512;DHT22;5304;48.604;2.096;2022-08-21T07:37:27;21.80;99.90
10512;DHT22;5304;48.604;2.096;2022-08-21T07:40:13;23.50;99.90
10512;DHT22;5304;48.604;2.096;2022-08-21T07:42:57;24.20;99.90
10512;DHT22;5304;48.604;2.096;2022-08-21T07:45:42;24.10;99.90
10512;DHT22;5304;48.604;2.096;2022-08-21T07:48:26;24.20;99.90
10512;DHT22;5304;48.604;2.096;2022-08-21T07:51:12;24.40;99.90
10512;DHT22;5304;48.604;2.096;2022-08-21T07:53:58;24.40;99.90
10512;DHT22;5304;48.604;2.096;2022-08-21T07:56:45;24.20;99.90
10512;DHT22;5304;48.604;2.096;2022-08-21T07:59:29;24.30;99.90
10512;DHT22;5304;48.604;2.096;2022-08-21T08:02:24;24.00;99.90
10512;DHT22;5304;48.604;2.096;2022-08-21T08:05:10;24.00;99.90
10512;DHT22;5304;48.604;2.096;2022-08-21T08:07:55;23.80;99.90
10512;DHT22;5304;48.604;2.096;2022-08-21T08:10:41;23.30;99.90
10512;DHT22;5304;48.604;2.096;2022-08-21T08:13:25;23.10;99.90
10512;DHT22;5304;48.604;2.096;2022-08-21T08:16:10;23.20;99.90
10512;DHT22;5304;48.604;2.096;2022-08-21T08:18:54;23.20;99.90
10512;DHT22;5304;48.604;2.096;2022-08-21T08:21:39;23.20;99.90
10512;DHT22;5304;48.604;2.096;2022-08-21T08:24:23;23.30;99.90
10512;DHT22;5304;48.604;2.096;2022-08-21T08:27:08;22.80;99.90
10512;DHT22;5304;48.604;2.096;2022-08-21T08:29:52;22.80;99.90
10512;DHT22;5304;48.604;2.096;2022-08-21T08:32:37;22.90;99.90
10512;DHT22;5304;48.604;2.096;2022-08-21T08:35:21;23.00;99.90
10512;DHT22;5304;48.604;2.096;2022-08-21T08:38:06;22.90;99.90
10512;DHT22;5304;48.604;2.096;2022-08-21T08:43:57;23.20;99.90
10512;DHT22;5304;48.604;2.096;2022-08-21T08:46:45;23.00;99.90
10512;DHT22;5304;48.604;2.096;2022-08-21T08:49:36;22.90;99.90
10512;DHT22;5304;48.604;2.096;2022-08-21T08:52:35;23.70;99.90
10512;DHT22;5304;48.604;2.096;2022-08-21T08:55:26;24.00;99.90
10512;DHT22;5304;48.604;2.096;2022-08-21T08:58:20;23.80;99.90
10512;DHT22;5304;48.604;2.096;2022-08-21T09:01:19;23.70;99.90
10512;DHT22;5304;48.604;2.096;2022-08-21T09:04:06;23.50;99.90
10512;DHT22;5304;48.604;2.096;2022-08-21T09:06:57;23.30;99.90
10512;DHT22;5304;48.604;2.096;2022-08-21T09:12:44;22.90;99.90
10512;DHT22;5304;48.604;2.096;2022-08-21T09:22:01;22.70;99.90
10512;DHT22;5304;48.604;2.096;2022-08-21T09:24:53;22.90;99.90
10512;DHT22;5304;48.604;2.096;2022-08-21T09:27:41;23.30;99.90
10512;DHT22;5304;48.604;2.096;2022-08-21T09:30:32;23.70;99.90
10512;DHT22;5304;48.604;2.096;2022-08-21T09:33:16;23.80;99.90
10512;DHT22;5304;48.604;2.096;2022-08-21T09:36:02;23.60;99.90
10512;DHT22;5304;48.604;2.096;2022-08-21T09:38:52;23.40;99.90
10512;DHT22;5304;48.604;2.096;2022-08-21T09:41:38;23.50;99.90
10512;DHT22;5304;48.604;2.096;2022-08-21T09:44:31;23.70;99.90
10512;DHT22;5304;48.604;2.096;2022-08-21T09:47:18;23.90;99.90
10512;DHT22;5304;48.604;2.096;2022-08-21T09:50:22;24.00;99.90
10512;DHT22;5304;48.604;2.096;2022-08-21T09:53:21;23.90;99.90
10512;DHT22;5304;48.604;2.096;2022-08-21T09:56:21;23.80;99.90
10512;DHT22;5304;48.604;2.096;2022-08-21T09:59:31;23.60;99.90
10512;DHT22;5304;48.604;2.096;2022-08-21T10:02:22;23.40;99.90
10512;DHT22;5304;48.604;2.096;2022-08-21T10:05:23;23.40;99.90
10512;DHT22;5304;48.604;2.096;2022-08-21T10:08:18;23.40;99.90
10512;DHT22;5304;48.604;2.096;2022-08-21T10:11:08;23.30;99.90
10512;DHT22;5304;48.604;2.096;2022-08-21T10:14:14;23.50;99.90
10512;DHT22;5304;48.604;2.096;2022-08-21T10:17:13;23.50;99.90
10512;DHT22;5304;48.604;2.096;2022-08-21T10:20:04;23.60;99.90
10512;DHT22;5304;48.604;2.096;2022-08-21T10:23:16;23.70;99.90
10512;DHT22;5304;48.604;2.096;2022-08-21T10:29:59;23.40;99.90
10512;DHT22;5304;48.604;2.096;2022-08-21T10:39:03;23.20;99.90
10512;DHT22;5304;48.604;2.096;2022-08-21T10:42:14;23.30;99.90
10512;DHT22;5304;48.604;2.096;2022-08-21T10:45:15;23.40;99.90
10512;DHT22;5304;48.604;2.096;2022-08-21T10:48:06;23.50;99.90
10512;DHT22;5304;48.604;2.096;2022-08-21T10:51:12;23.70;99.90
10512;DHT22;5304;48.604;2.096;2022-08-21T10:54:17;23.70;99.90
10512;DHT22;5304;48.604;2.096;2022-08-21T10:57:11;23.60;99.90
10512;DHT22;5304;48.604;2.096;2022-08-21T11:00:03;23.50;99.90
10512;DHT22;5304;48.604;2.096;2022-08-21T11:03:11;23.40;99.90
10512;DHT22;5304;48.604;2.096;2022-08-21T11:06:21;23.40;99.90
10512;DHT22;5304;48.604;2.096;2022-08-21T11:09:19;23.40;99.90
10512;DHT22;5304;48.604;2.096;2022-08-21T11:12:22;23.50;99.90
10512;DHT22;5304;48.604;2.096;2022-08-21T11:15:27;23.50;99.90
10512;DHT22;5304;48.604;2.096;2022-08-21T11:18:36;23.60;99.90
10512;DHT22;5304;48.604;2.096;2022-08-21T11:27:50;24.60;99.90
10512;DHT22;5304;48.604;2.096;2022-08-21T11:30:44;24.90;99.90
10512;DHT22;5304;48.604;2.096;2022-08-21T11:36:40;26.00;99.90
10512;DHT22;5304;48.604;2.096;2022-08-21T11:45:44;26.50;99.90
10512;DHT22;5304;48.604;2.096;2022-08-21T11:54:38;26.70;99.90
10512;DHT22;5304;48.604;2.096;2022-08-21T11:57:39;26.50;99.90
10512;DHT22;5304;48.604;2.096;2022-08-21T12:03:25;26.30;99.90
10512;DHT22;5304;48.604;2.096;2022-08-21T12:06:13;26.40;99.90
10512;DHT22;5304;48.604;2.096;2022-08-21T12:09:02;26.50;99.90
10512;DHT22;5304;48.604;2.096;2022-08-21T12:11:49;26.50;99.90
10512;DHT22;5304;48.604;2.096;2022-08-21T12:14:38;26.80;99.90
10512;DHT22;5304;48.604;2.096;2022-08-21T12:17:35;27.10;99.90
10512;DHT22;5304;48.604;2.096;2022-08-21T12:23:16;27.10;99.90
10512;DHT22;5304;48.604;2.096;2022-08-21T12:29:14;26.90;99.90
10512;DHT22;5304;48.604;2.096;2022-08-21T12:32:22;26.90;99.90
10512;DHT22;5304;48.604;2.096;2022-08-21T12:35:15;26.50;99.90
10512;DHT22;5304;48.604;2.096;2022-08-21T12:38:32;26.20;99.90
10512;DHT22;5304;48.604;2.096;2022-08-21T12:41:21;26.10;99.90
10512;DHT22;5304;48.604;2.096;2022-08-21T12:44:20;25.90;99.90
10512;DHT22;5304;48.604;2.096;2022-08-21T12:47:14;26.00;99.90
10512;DHT22;5304;48.604;2.096;2022-08-21T12:53:02;25.90;99.90
10512;DHT22;5304;48.604;2.096;2022-08-21T12:55:48;25.90;99.90
10512;DHT22;5304;48.604;2.096;2022-08-21T12:58:33;26.00;99.90
10512;DHT22;5304;48.604;2.096;2022-08-21T13:01:30;26.30;99.90
10512;DHT22;5304;48.604;2.096;2022-08-21T13:04:38;26.40;99.90
10512;DHT22;5304;48.604;2.096;2022-08-21T13:07:29;26.30;99.90
10512;DHT22;5304;48.604;2.096;2022-08-21T13:10:22;26.30;99.90
10512;DHT22;5304;48.604;2.096;2022-08-21T13:13:14;26.50;99.90
10512;DHT22;5304;48.604;2.096;2022-08-21T13:16:06;26.40;99.90
10512;DHT22;5304;48.604;2.096;2022-08-21T13:21:42;26.70;99.90
10512;DHT22;5304;48.604;2.096;2022-08-21T13:24:33;27.00;99.90
10512;DHT22;5304;48.604;2.096;2022-08-21T13:27:26;27.00;99.90
10512;DHT22;5304;48.604;2.096;2022-08-21T13:30:12;26.90;99.90
10512;DHT22;5304;48.604;2.096;2022-08-21T13:33:00;27.20;99.90
10512;DHT22;5304;48.604;2.096;2022-08-21T13:38:45;27.40;99.90
10512;DHT22;5304;48.604;2.096;2022-08-21T13:41:33;27.30;99.90
10512;DHT22;5304;48.604;2.096;2022-08-21T13:44:22;27.00;99.90
10512;DHT22;5304;48.604;2.096;2022-08-21T13:47:12;26.90;99.90
10512;DHT22;5304;48.604;2.096;2022-08-21T13:49:57;26.70;99.90
10512;DHT22;5304;48.604;2.096;2022-08-21T13:53:03;26.50;99.90
10512;DHT22;5304;48.604;2.096;2022-08-21T13:55:47;26.50;99.90
10512;DHT22;5304;48.604;2.096;2022-08-21T13:58:43;26.30;99.90
10512;DHT22;5304;48.604;2.096;2022-08-21T14:01:31;26.20;99.90
10512;DHT22;5304;48.604;2.096;2022-08-21T14:05:00;26.20;99.90
10512;DHT22;5304;48.604;2.096;2022-08-21T14:07:45;26.40;99.90
10512;DHT22;5304;48.604;2.096;2022-08-21T14:10:31;26.70;99.90
10512;DHT22;5304;48.604;2.096;2022-08-21T14:16:55;26.90;99.90
10512;DHT22;5304;48.604;2.096;2022-08-21T14:19:43;27.00;99.90
10512;DHT22;5304;48.604;2.096;2022-08-21T14:28:27;26.70;99.90
10512;DHT22;5304;48.604;2.096;2022-08-21T14:31:15;26.60;99.90
10512;DHT22;5304;48.604;2.096;2022-08-21T14:34:00;26.30;99.90
10512;DHT22;5304;48.604;2.096;2022-08-21T14:36:47;26.10;99.90
10512;DHT22;5304;48.604;2.096;2022-08-21T14:39:31;25.90;99.90
10512;DHT22;5304;48.604;2.096;2022-08-21T14:42:16;25.80;99.90
10512;DHT22;5304;48.604;2.096;2022-08-21T14:45:07;25.70;99.90
10512;DHT22;5304;48.604;2.096;2022-08-21T14:47:52;25.70;99.90
10512;DHT22;5304;48.604;2.096;2022-08-21T14:50:37;25.80;99.90
10512;DHT22;5304;48.604;2.096;2022-08-21T14:53:21;26.00;99.90
10512;DHT22;5304;48.604;2.096;2022-08-21T14:56:06;26.00;99.90
10512;DHT22;5304;48.604;2.096;2022-08-21T14:58:52;25.90;99.90
10512;DHT22;5304;48.604;2.096;2022-08-21T15:01:38;25.80;99.90
10512;DHT22;5304;48.604;2.096;2022-08-21T15:04:23;25.80;99.90
10512;DHT22;5304;48.604;2.096;2022-08-21T15:07:07;25.70;99.90
10512;DHT22;5304;48.604;2.096;2022-08-21T15:09:52;25.60;99.90
10512;DHT22;5304;48.604;2.096;2022-08-21T15:12:36;25.40;99.90
10512;DHT22;5304;48.604;2.096;2022-08-21T15:15:21;25.40;99.90
10512;DHT22;5304;48.604;2.096;2022-08-21T15:18:08;25.40;99.90
10512;DHT22;5304;48.604;2.096;2022-08-21T15:20:54;25.30;99.90
10512;DHT22;5304;48.604;2.096;2022-08-21T15:23:39;25.30;99.90
10512;DHT22;5304;48.604;2.096;2022-08-21T15:26:24;25.20;99.90
10512;DHT22;5304;48.604;2.096;2022-08-21T15:29:09;25.00;99.90
10512;DHT22;5304;48.604;2.096;2022-08-21T15:31:59;25.00;99.90
10512;DHT22;5304;48.604;2.096;2022-08-21T15:34:43;24.80;99.90
10512;DHT22;5304;48.604;2.096;2022-08-21T15:37:28;24.70;99.90
10512;DHT22;5304;48.604;2.096;2022-08-21T15:40:13;24.70;99.90
10512;DHT22;5304;48.604;2.096;2022-08-21T15:43:00;24.70;99.90
10512;DHT22;5304;48.604;2.096;2022-08-21T15:45:44;24.70;99.90
10512;DHT22;5304;48.604;2.096;2022-08-21T15:48:29;24.60;99.90
10512;DHT22;5304;48.604;2.096;2022-08-21T15:51:14;24.70;99.90
10512;DHT22;5304;48.604;2.096;2022-08-21T15:53:59;24.70;99.90
10512;DHT22;5304;48.604;2.096;2022-08-21T15:56:46;24.70;99.90
10512;DHT22;5304;48.604;2.096;2022-08-21T15:59:44;24.80;99.90
10512;DHT22;5304;48.604;2.096;2022-08-21T16:02:30;24.70;99.90
10512;DHT22;5304;48.604;2.096;2022-08-21T16:05:16;24.50;99.90
10512;DHT22;5304;48.604;2.096;2022-08-21T16:08:01;24.40;99.90
10512;DHT22;5304;48.604;2.096;2022-08-21T16:10:46;24.40;99.90
10512;DHT22;5304;48.604;2.096;2022-08-21T16:13:39;24.40;99.90
10512;DHT22;5304;48.604;2.096;2022-08-21T16:16:35;24.40;99.90
10512;DHT22;5304;48.604;2.096;2022-08-21T16:19:20;24.50;99.90
10512;DHT22;5304;48.604;2.096;2022-08-21T16:22:05;24.40;99.90
10512;DHT22;5304;48.604;2.096;2022-08-21T16:24:51;24.60;99.90
10512;DHT22;5304;48.604;2.096;2022-08-21T16:27:36;24.60;99.90
10512;DHT22;5304;48.604;2.096;2022-08-21T16:30:20;24.60;99.90
10512;DHT22;5304;48.604;2.096;2022-08-21T16:33:05;24.60;99.90
10512;DHT22;5304;48.604;2.096;2022-08-21T16:35:51;24.60;99.90
10512;DHT22;5304;48.604;2.096;2022-08-21T16:38:36;24.70;99.90
10512;DHT22;5304;48.604;2.096;2022-08-21T16:41:23;24.60;99.90
10512;DHT22;5304;48.604;2.096;2022-08-21T16:44:09;24.50;99.90
10512;DHT22;5304;48.604;2.096;2022-08-21T16:46:53;24.50;99.90
10512;DHT22;5304;48.604;2.096;2022-08-21T16:49:38;24.40;99.90
10512;DHT22;5304;48.604;2.096;2022-08-21T16:52:23;24.30;99.90
10512;DHT22;5304;48.604;2.096;2022-08-21T16:55:07;24.40;99.90
10512;DHT22;5304;48.604;2.096;2022-08-21T16:57:53;24.30;99.90
10512;DHT22;5304;48.604;2.096;2022-08-21T17:00:38;24.20;99.90
10512;DHT22;5304;48.604;2.096;2022-08-21T17:03:31;24.10;99.90
10512;DHT22;5304;48.604;2.096;2022-08-21T17:06:17;24.10;99.90
10512;DHT22;5304;48.604;2.096;2022-08-21T17:09:02;24.00;99.90
10512;DHT22;5304;48.604;2.096;2022-08-21T17:11:47;24.00;99.90
10512;DHT22;5304;48.604;2.096;2022-08-21T17:14:34;23.90;99.90
10512;DHT22;5304;48.604;2.096;2022-08-21T17:17:20;24.00;99.90
10512;DHT22;5304;48.604;2.096;2022-08-21T17:20:05;23.90;99.90
10512;DHT22;5304;48.604;2.096;2022-08-21T17:22:49;24.00;99.90
10512;DHT22;5304;48.604;2.096;2022-08-21T17:25:37;24.00;99.90
10512;DHT22;5304;48.604;2.096;2022-08-21T17:28:26;24.00;99.90
10512;DHT22;5304;48.604;2.096;2022-08-21T17:31:12;24.00;99.90
10512;DHT22;5304;48.604;2.096;2022-08-21T17:33:57;23.90;99.90
10512;DHT22;5304;48.604;2.096;2022-08-21T17:36:42;23.90;99.90
10512;DHT22;5304;48.604;2.096;2022-08-21T17:39:26;23.90;99.90
10512;DHT22;5304;48.604;2.096;2022-08-21T17:42:12;24.10;99.90
10512;DHT22;5304;48.604;2.096;2022-08-21T17:44:57;24.00;99.90
10512;DHT22;5304;48.604;2.096;2022-08-21T17:47:42;24.00;99.90
10512;DHT22;5304;48.604;2.096;2022-08-21T17:50:27;24.00;99.90
10512;DHT22;5304;48.604;2.096;2022-08-21T17:53:11;23.90;99.90
10512;DHT22;5304;48.604;2.096;2022-08-21T17:55:56;23.80;99.90
10512;DHT22;5304;48.604;2.096;2022-08-21T17:58:44;23.70;99.90
10512;DHT22;5304;48.604;2.096;2022-08-21T18:01:34;23.70;99.90
10512;DHT22;5304;48.604;2.096;2022-08-21T18:04:18;23.70;99.90
10512;DHT22;5304;48.604;2.096;2022-08-21T18:07:03;23.50;99.90
10512;DHT22;5304;48.604;2.096;2022-08-21T18:09:48;23.50;99.90
10512;DHT22;5304;48.604;2.096;2022-08-21T18:12:33;23.30;99.90
10512;DHT22;5304;48.604;2.096;2022-08-21T18:15:19;23.20;99.90
10512;DHT22;5304;48.604;2.096;2022-08-21T18:18:04;23.00;99.90
10512;DHT22;5304;48.604;2.096;2022-08-21T18:20:49;22.80;99.90
10512;DHT22;5304;48.604;2.096;2022-08-21T18:23:34;22.70;99.90
10512;DHT22;5304;48.604;2.096;2022-08-21T18:26:29;22.80;99.90
10512;DHT22;5304;48.604;2.096;2022-08-21T18:29:15;22.50;99.90
10512;DHT22;5304;48.604;2.096;2022-08-21T18:32:01;22.30;99.90
10512;DHT22;5304;48.604;2.096;2022-08-21T18:34:45;22.20;99.90
10512;DHT22;5304;48.604;2.096;2022-08-21T18:37:31;22.00;99.90
10512;DHT22;5304;48.604;2.096;2022-08-21T18:40:15;22.10;99.90
10512;DHT22;5304;48.604;2.096;2022-08-21T18:43:01;21.90;99.90
10512;DHT22;5304;48.604;2.096;2022-08-21T18:45:47;21.80;99.90
10512;DHT22;5304;48.604;2.096;2022-08-21T18:48:31;21.70;99.90
10512;DHT22;5304;48.604;2.096;2022-08-21T18:51:16;21.60;99.90
10512;DHT22;5304;48.604;2.096;2022-08-21T18:54:01;21.50;99.90
10512;DHT22;5304;48.604;2.096;2022-08-21T18:56:46;21.40;99.90
10512;DHT22;5304;48.604;2.096;2022-08-21T18:59:32;21.30;99.90
10512;DHT22;5304;48.604;2.096;2022-08-21T19:02:16;21.30;99.90
10512;DHT22;5304;48.604;2.096;2022-08-21T19:05:01;21.20;99.90
10512;DHT22;5304;48.604;2.096;2022-08-21T19:07:46;21.10;99.90